»·PEaware :: N4871T KPSP-KLAS

N4871T :: KPSP-KLAS

FLIGHT INFORMATION

Flight Status: Arrived
Operator: Privately registered:
United States
More flights under this callsign
Pilot: Raphael S. (13144)
Aircraft: BEECH AIRCRAFT BARON
(BE58)
More flights by this aircraft type
Origin: KPSP Palm Springs Intl
United States
Destination: KLAS McCarran Intl
United States
More flights between these airports :: More routes between these airports
Route: +CATH1 PSP V370 TNP CLARR3
File this flight plan on PilotEdge
Remarks:
Altitude:
(Current/Filed)
13,000ft
Speed:
(Current/Filed)
200kts
Departed: 24-Dec-17 11:43 AM
Arrived: 24-Dec-17 12:54 PM
Distance/Time
Traveled:
150nm/1:11
Distance/Time
To Go:
Arrived

Flight Plot

Page will automatically refresh every two minutes.

Flight plan parsing failed; only flown route is shown


Map Options




Map Legend


Flown Route
Filed Route
Departure Airport
Arrival Airport
Navaid (VOR, NDB)
Fix

Horizontal Profiles

Position Reports

Time Latitude Longitude Heading Altitude Ground
Speed
24-Dec-17 11:29 33.826300 -116.508736 272 480ft 0kts
24-Dec-17 11:30 33.826300 -116.508736 272 480ft 0kts
24-Dec-17 11:31 33.826300 -116.508736 272 480ft 0kts
24-Dec-17 11:32 33.826300 -116.508736 272 480ft 0kts
24-Dec-17 11:33 33.826300 -116.508736 272 480ft 0kts
24-Dec-17 11:34 33.826300 -116.508736 272 480ft 0kts
24-Dec-17 11:35 33.826300 -116.508736 272 480ft 0kts
24-Dec-17 11:36 33.826300 -116.508736 272 480ft 0kts
24-Dec-17 11:37 33.826300 -116.508736 272 480ft 0kts
24-Dec-17 11:38 33.826300 -116.508736 272 480ft 0kts
24-Dec-17 11:39 33.826300 -116.508736 272 480ft 0kts
24-Dec-17 11:40 33.826300 -116.508736 272 480ft 0kts
24-Dec-17 11:41 33.826300 -116.508736 272 480ft 0kts
24-Dec-17 11:42 33.826300 -116.508739 272 480ft 0kts
24-Dec-17 11:43 33.826120 -116.507957 110 480ft 7kts
24-Dec-17 11:44 33.826057 -116.506570 112 480ft 3kts
24-Dec-17 11:45 33.824509 -116.505114 143 480ft 11kts
24-Dec-17 11:46 33.821438 -116.502369 143 480ft 15kts
24-Dec-17 11:47 33.818566 -116.499776 142 480ft 13kts
24-Dec-17 11:48 33.818535 -116.498860 88 480ft 0kts
24-Dec-17 11:49 33.820144 -116.499180 322 480ft 55kts
24-Dec-17 11:50 33.843022 -116.520364 319 1732ft 107kts
24-Dec-17 11:51 33.864054 -116.546068 309 3237ft 108kts
24-Dec-17 11:52 33.880553 -116.568703 312 4363ft 111kts
24-Dec-17 11:53 33.903665 -116.568559 101 5814ft 118kts
24-Dec-17 11:54 33.894248 -116.529899 107 6931ft 125kts
24-Dec-17 11:55 33.885168 -116.497216 101 7850ft 126kts
24-Dec-17 11:56 33.876138 -116.456519 104 8927ft 130kts
24-Dec-17 11:57 33.870803 -116.408398 53 10118ft 128kts
24-Dec-17 11:58 33.888936 -116.379852 49 10877ft 133kts
24-Dec-17 11:59 33.908790 -116.345983 48 11716ft 134kts
24-Dec-17 12:00 33.929912 -116.320109 38 12387ft 135kts
24-Dec-17 12:01 33.955777 -116.285988 44 12958ft 152kts
24-Dec-17 12:02 33.984977 -116.241396 58 12980ft 185kts
24-Dec-17 12:03 34.006882 -116.182738 68 12991ft 196kts
24-Dec-17 12:04 34.024649 -116.120171 70 13005ft 198kts
24-Dec-17 12:05 34.041139 -116.056300 71 13015ft 199kts
24-Dec-17 12:06 34.057167 -115.992340 72 13025ft 200kts
24-Dec-17 12:07 34.073116 -115.928049 72 13036ft 200kts
24-Dec-17 12:08 34.088901 -115.864132 72 13041ft 200kts
24-Dec-17 12:09 34.101934 -115.811372 71 13042ft 200kts
24-Dec-17 12:10 34.118534 -115.755207 44 13048ft 196kts
24-Dec-17 12:11 34.159287 -115.712214 39 13042ft 197kts
24-Dec-17 12:12 34.198315 -115.668576 40 13042ft 197kts
24-Dec-17 12:13 34.237255 -115.623452 41 13033ft 198kts
24-Dec-17 12:14 34.276418 -115.577514 41 13033ft 197kts
24-Dec-17 12:15 34.315691 -115.531239 41 13033ft 197kts
24-Dec-17 12:16 34.364270 -115.506107 15 13033ft 193kts
24-Dec-17 12:17 34.414937 -115.484891 15 13033ft 193kts
24-Dec-17 12:18 34.465309 -115.463529 15 13033ft 193kts
24-Dec-17 12:19 34.515787 -115.442025 15 13033ft 193kts
24-Dec-17 12:20 34.566300 -115.420459 15 13029ft 194kts
24-Dec-17 12:21 34.616672 -115.398920 15 13011ft 194kts
24-Dec-17 12:22 34.667214 -115.377277 15 12994ft 194kts
24-Dec-17 12:23 34.717840 -115.355567 15 13002ft 193kts
24-Dec-17 12:24 34.763869 -115.335298 16 13004ft 193kts
24-Dec-17 12:25 34.814305 -115.313262 16 13004ft 193kts
24-Dec-17 12:26 34.864587 -115.291551 16 13004ft 193kts
24-Dec-17 12:27 34.915067 -115.269776 15 13004ft 193kts
24-Dec-17 12:28 34.965484 -115.247999 15 13004ft 195kts
24-Dec-17 12:29 35.016361 -115.225994 15 13004ft 197kts
24-Dec-17 12:30 35.067900 -115.203679 15 13001ft 199kts
24-Dec-17 12:31 35.113771 -115.183855 14 12992ft 199kts
24-Dec-17 12:32 35.158616 -115.202892 316 12985ft 181kts
24-Dec-17 12:33 35.197419 -115.241423 316 12987ft 182kts
24-Dec-17 12:34 35.236353 -115.279946 316 13004ft 181kts
24-Dec-17 12:35 35.275443 -115.318612 316 13021ft 181kts
24-Dec-17 12:36 35.314088 -115.356945 315 13032ft 181kts
24-Dec-17 12:37 35.352885 -115.395429 316 13039ft 181kts
24-Dec-17 12:38 35.391688 -115.433964 316 13040ft 181kts
24-Dec-17 12:39 35.432431 -115.469536 326 13040ft 184kts
24-Dec-17 12:40 35.476483 -115.500764 324 13039ft 184kts
24-Dec-17 12:41 35.524828 -115.486202 28 13039ft 202kts
24-Dec-17 12:42 35.563899 -115.447891 39 12085ft 167kts
24-Dec-17 12:43 35.595677 -115.409321 43 10913ft 157kts
24-Dec-17 12:44 35.627241 -115.368188 45 9917ft 185kts
24-Dec-17 12:45 35.662585 -115.320643 46 9137ft 191kts
24-Dec-17 12:46 35.697977 -115.272560 47 8354ft 191kts
24-Dec-17 12:47 35.732898 -115.224944 47 7590ft 187kts
24-Dec-17 12:48 35.767117 -115.177996 47 6988ft 178kts
24-Dec-17 12:49 35.808495 -115.149169 18 7034ft 180kts
24-Dec-17 12:50 35.855851 -115.127509 15 7138ft 181kts
24-Dec-17 12:51 35.902277 -115.102467 19 7127ft 184kts
24-Dec-17 12:52 35.949531 -115.079777 20 7069ft 186kts
24-Dec-17 12:53 35.995545 -115.054187 22 7083ft 183kts
24-Dec-17 12:54 36.040799 -115.027679 24 7044ft 180kts
24-Dec-17 12:55 36.082998 -115.031169 316 6577ft 165kts
24-Dec-17 12:56 36.112268 -115.056919 318 4475ft 129kts
24-Dec-17 12:57 36.128746 -115.095929 286 3449ft 129kts
24-Dec-17 12:58 36.130320 -115.138074 229 2777ft 134kts
24-Dec-17 12:59 36.101653 -115.155292 203 2253ft 108kts
24-Dec-17 13:00 36.089217 -115.162966 278 2144ft 4kts
24-Dec-17 13:01 36.089369 -115.163422 297 2144ft 0kts
24-Dec-17 13:02 36.089724 -115.164383 282 2144ft 5kts
24-Dec-17 13:03 36.088352 -115.165306 204 2144ft 8kts
24-Dec-17 13:04 36.086311 -115.166477 204 2144ft 7kts
24-Dec-17 13:05 36.084796 -115.168191 206 2144ft 8kts
24-Dec-17 13:06 36.083846 -115.169242 79 2144ft 0kts

Navigation Log

Ident Type
Flight plan parsing failed, navigation log unavailable